createdAt,value
2023-05-18T00:00:02.452Z,2.63
2023-05-18T00:02:29.080Z,2.70
2023-05-18T00:04:55.671Z,2.92
2023-05-18T00:07:22.479Z,2.22
2023-05-18T00:09:49.024Z,2.95
2023-05-18T00:12:15.667Z,2.03
2023-05-18T00:14:42.190Z,2.28
2023-05-18T00:17:08.675Z,2.28
2023-05-18T00:19:35.168Z,1.95
2023-05-18T00:22:02.287Z,2.03
2023-05-18T00:24:28.948Z,2.67
2023-05-18T00:26:55.507Z,2.63
2023-05-18T00:29:22.073Z,2.78
2023-05-18T00:31:48.752Z,2.78
2023-05-18T00:34:16.204Z,1.80
2023-05-18T00:36:42.987Z,3.25
2023-05-18T00:39:09.671Z,2.65
2023-05-18T00:41:36.572Z,2.25
2023-05-18T00:44:04.642Z,2.60
2023-05-18T00:46:31.405Z,2.50
2023-05-18T00:48:58.848Z,2.22
2023-05-18T00:51:26.065Z,2.58
2023-05-18T00:53:54.986Z,2.78
2023-05-18T00:56:26.338Z,1.90
2023-05-18T00:58:57.565Z,2.88
2023-05-18T01:01:29.605Z,2.78
2023-05-18T01:03:57.965Z,2.80
2023-05-18T01:07:16.811Z,2.65
2023-05-18T01:09:43.357Z,2.85
2023-05-18T01:12:33.092Z,2.88
2023-05-18T01:15:05.468Z,2.95
2023-05-18T01:18:05.102Z,2.92
2023-05-18T01:20:38.086Z,2.55
2023-05-18T01:23:45.240Z,2.40
2023-05-18T01:26:16.795Z,2.60
2023-05-18T01:28:46.542Z,3.75
2023-05-18T01:31:16.117Z,3.35
2023-05-18T01:33:44.491Z,3.40
2023-05-18T01:36:11.473Z,3.30
2023-05-18T01:38:41.676Z,2.47
2023-05-18T01:41:24.303Z,2.75
2023-05-18T01:44:24.767Z,3.85
2023-05-18T01:47:00.211Z,2.92
2023-05-18T01:49:37.652Z,2.67
2023-05-18T01:52:09.058Z,3.15
2023-05-18T01:54:38.553Z,2.13
2023-05-18T01:57:08.327Z,3.00
2023-05-18T01:59:36.225Z,2.47
2023-05-18T02:02:03.583Z,3.35
2023-05-18T02:04:30.227Z,3.10
2023-05-18T02:06:56.943Z,3.05
2023-05-18T02:09:23.636Z,2.83
2023-05-18T02:11:50.149Z,2.45
2023-05-18T02:14:16.669Z,2.50
2023-05-18T02:16:47.412Z,2.05
2023-05-18T02:19:17.531Z,2.85
2023-05-18T02:21:44.669Z,3.00
2023-05-18T02:24:12.545Z,2.42
2023-05-18T02:26:39.754Z,2.20
2023-05-18T02:29:06.680Z,2.90
2023-05-18T02:31:33.275Z,2.90
2023-05-18T02:33:59.813Z,3.10
2023-05-18T02:36:26.303Z,2.40
2023-05-18T02:38:52.970Z,2.80
2023-05-18T02:41:19.504Z,2.53
2023-05-18T02:43:45.943Z,3.15
2023-05-18T02:46:12.435Z,3.08
2023-05-18T02:48:38.976Z,2.97
2023-05-18T02:51:05.481Z,3.33
2023-05-18T02:53:32.032Z,3.00
2023-05-18T02:55:58.544Z,2.83
2023-05-18T02:58:25.661Z,2.70
2023-05-18T03:00:55.186Z,2.67
2023-05-18T03:03:23.848Z,2.35
2023-05-18T03:05:52.959Z,2.75
2023-05-18T03:08:26.927Z,3.63
2023-05-18T03:10:53.590Z,2.90
2023-05-18T03:13:20.236Z,2.40
2023-05-18T03:15:47.104Z,2.63
2023-05-18T03:18:13.636Z,2.38
2023-05-18T03:20:40.687Z,2.75
2023-05-18T03:23:07.451Z,3.33
2023-05-18T03:25:37.235Z,3.33
2023-05-18T03:28:05.458Z,2.85
2023-05-18T03:30:34.032Z,2.75
2023-05-18T03:33:01.997Z,3.70
2023-05-18T03:35:29.173Z,2.40
2023-05-18T03:37:56.100Z,3.97
2023-05-18T03:40:23.231Z,2.72
2023-05-18T03:42:49.773Z,3.67
2023-05-18T03:45:16.414Z,3.00
2023-05-18T03:47:43.078Z,2.47
2023-05-18T03:50:10.603Z,3.10
2023-05-18T03:52:37.385Z,2.65
2023-05-18T03:55:05.093Z,2.83
2023-05-18T03:57:32.277Z,2.83
2023-05-18T03:59:58.857Z,3.22
2023-05-18T04:02:25.867Z,2.67
2023-05-18T04:04:54.564Z,3.85
2023-05-18T04:07:24.234Z,2.65
2023-05-18T04:09:55.633Z,3.13
2023-05-18T04:12:22.566Z,3.58
2023-05-18T04:14:51.712Z,2.95
2023-05-18T04:17:22.239Z,3.72
2023-05-18T04:19:50.085Z,3.05
2023-05-18T04:22:17.256Z,2.83
2023-05-18T04:24:45.730Z,2.45
2023-05-18T04:27:12.368Z,2.45
2023-05-18T04:29:40.246Z,3.20
2023-05-18T04:32:08.033Z,3.33
2023-05-18T04:34:37.988Z,3.72
2023-05-18T04:37:07.982Z,3.30
2023-05-18T04:39:35.130Z,3.28
2023-05-18T04:42:04.541Z,3.85
2023-05-18T04:44:34.114Z,2.80
2023-05-18T04:47:00.921Z,2.88
2023-05-18T04:49:28.248Z,3.47
2023-05-18T04:51:56.718Z,3.47
2023-05-18T04:54:24.159Z,2.80
2023-05-18T04:56:51.656Z,3.35
2023-05-18T04:59:18.862Z,3.03
2023-05-18T05:01:46.341Z,2.63
2023-05-18T05:04:13.423Z,3.92
2023-05-18T05:06:39.966Z,2.78
2023-05-18T05:09:06.460Z,3.08
2023-05-18T05:11:33.028Z,2.72
2023-05-18T05:14:04.140Z,3.33
2023-05-18T05:16:30.981Z,3.50
2023-05-18T05:18:57.622Z,3.28
2023-05-18T05:21:24.251Z,3.58
2023-05-18T05:23:50.865Z,2.80
2023-05-18T05:26:18.230Z,2.72
2023-05-18T05:28:44.748Z,3.10
2023-05-18T05:31:11.596Z,3.22
2023-05-18T05:33:38.347Z,2.83
2023-05-18T05:36:05.427Z,3.35
2023-05-18T05:38:32.641Z,3.35
2023-05-18T05:40:59.253Z,3.75
2023-05-18T05:43:26.347Z,3.83
2023-05-18T05:45:54.268Z,3.17
2023-05-18T05:48:20.957Z,3.25
2023-05-18T05:50:47.523Z,2.67
2023-05-18T05:53:17.778Z,2.47
2023-05-18T05:55:44.294Z,2.75
2023-05-18T05:58:11.140Z,2.13
2023-05-18T06:00:37.688Z,2.55
2023-05-18T06:03:04.199Z,2.88
2023-05-18T06:05:30.944Z,3.30
2023-05-18T06:07:57.653Z,3.35
2023-05-18T06:10:24.256Z,4.03
2023-05-18T06:12:50.950Z,3.40
2023-05-18T06:15:18.864Z,2.33
2023-05-18T06:17:45.571Z,2.63
2023-05-18T06:20:12.896Z,3.10
2023-05-18T06:22:39.541Z,2.67
2023-05-18T06:25:06.196Z,2.75
2023-05-18T06:27:33.021Z,2.75
2023-05-18T06:29:59.475Z,3.28
2023-05-18T06:32:26.108Z,2.95
2023-05-18T06:34:52.744Z,2.53
2023-05-18T06:37:20.639Z,3.35
2023-05-18T06:39:47.200Z,2.55
2023-05-18T06:42:13.720Z,2.47
2023-05-18T06:44:40.160Z,3.00
2023-05-18T06:47:07.048Z,2.65
2023-05-18T06:49:33.686Z,2.60
2023-05-18T06:52:00.184Z,2.78
2023-05-18T06:54:26.822Z,3.33
2023-05-18T06:56:53.334Z,3.30
2023-05-18T06:59:19.824Z,2.60
2023-05-18T07:01:46.493Z,2.70
2023-05-18T07:04:13.259Z,2.53
2023-05-18T07:06:39.901Z,2.67
2023-05-18T07:09:08.026Z,3.00
2023-05-18T07:11:34.619Z,2.40
2023-05-18T07:14:01.552Z,2.55
2023-05-18T07:16:28.292Z,2.75
2023-05-18T07:18:54.901Z,2.67
2023-05-18T07:21:21.483Z,2.90
2023-05-18T07:23:47.961Z,2.42
2023-05-18T07:26:14.446Z,3.17
2023-05-18T07:28:41.034Z,2.50
2023-05-18T07:31:07.697Z,3.22
2023-05-18T07:33:34.475Z,2.78
2023-05-18T07:36:01.088Z,3.55
2023-05-18T07:38:28.536Z,2.70
2023-05-18T07:40:55.008Z,2.70
2023-05-18T07:43:21.494Z,2.63
2023-05-18T07:45:47.995Z,2.13
2023-05-18T07:48:14.548Z,2.30
2023-05-18T07:50:41.383Z,2.50
2023-05-18T07:53:07.892Z,2.75
2023-05-18T07:55:34.547Z,2.65
2023-05-18T07:58:01.118Z,2.65
2023-05-18T08:00:28.100Z,2.70
2023-05-18T08:02:55.007Z,2.50
2023-05-18T08:05:22.694Z,2.13
2023-05-18T08:07:49.592Z,2.30
2023-05-18T08:10:16.088Z,2.03
2023-05-18T08:12:42.709Z,2.25
2023-05-18T08:15:10.496Z,2.88
2023-05-18T08:17:37.031Z,2.70
2023-05-18T08:20:04.996Z,1.92
2023-05-18T08:22:31.451Z,2.58
2023-05-18T08:25:00.876Z,2.30
2023-05-18T08:27:28.841Z,2.40
2023-05-18T08:29:55.305Z,2.47
2023-05-18T08:32:21.903Z,2.38
2023-05-18T08:34:51.312Z,2.17
2023-05-18T08:37:17.864Z,2.85
2023-05-18T08:39:46.092Z,2.72
2023-05-18T08:42:49.507Z,2.55
2023-05-18T08:45:33.148Z,2.22
2023-05-18T08:48:01.642Z,2.45
2023-05-18T08:50:32.013Z,2.33
2023-05-18T08:53:02.344Z,2.53
2023-05-18T08:55:29.592Z,2.40
2023-05-18T08:58:00.090Z,2.50
2023-05-18T09:00:27.363Z,2.97
2023-05-18T09:02:54.459Z,2.38
2023-05-18T09:05:22.975Z,2.50
2023-05-18T09:07:52.428Z,2.33
2023-05-18T09:10:19.046Z,1.98
2023-05-18T09:12:47.199Z,2.90
2023-05-18T09:15:15.866Z,3.00
2023-05-18T09:17:42.489Z,2.30
2023-05-18T09:20:10.143Z,2.15
2023-05-18T09:22:37.174Z,3.13
2023-05-18T09:25:04.111Z,2.58
2023-05-18T09:27:31.081Z,2.28
2023-05-18T09:29:58.654Z,2.50
2023-05-18T09:32:26.505Z,1.85
2023-05-18T09:34:53.889Z,2.17
2023-05-18T09:37:21.872Z,2.30
2023-05-18T09:39:59.209Z,2.30
2023-05-18T09:42:39.436Z,2.40
2023-05-18T09:45:16.232Z,2.67
2023-05-18T09:47:42.869Z,2.33
2023-05-18T09:50:09.736Z,2.50
2023-05-18T09:52:47.227Z,2.50
2023-05-18T09:55:16.623Z,2.72
2023-05-18T09:57:44.671Z,2.28
2023-05-18T10:00:12.782Z,2.25
2023-05-18T10:02:48.617Z,1.88
2023-05-18T10:05:20.235Z,2.33
2023-05-18T10:10:19.640Z,2.20
2023-05-18T10:12:46.461Z,2.35
2023-05-18T10:15:18.155Z,2.65
2023-05-18T10:17:46.693Z,2.30
2023-05-18T10:20:17.390Z,2.63
2023-05-18T10:22:46.446Z,2.05
2023-05-18T10:25:19.455Z,1.95
2023-05-18T10:27:48.282Z,2.53
2023-05-18T10:30:16.532Z,2.50
2023-05-18T10:32:43.821Z,2.50
2023-05-18T10:35:11.151Z,2.70
2023-05-18T10:37:40.210Z,2.13
2023-05-18T10:40:08.558Z,2.13
2023-05-18T10:42:35.237Z,2.47
2023-05-18T10:45:02.855Z,2.13
2023-05-18T10:47:29.627Z,2.75
2023-05-18T10:49:59.682Z,2.17
2023-05-18T10:52:31.714Z,2.17
2023-05-18T10:55:01.606Z,2.25
2023-05-18T10:57:37.969Z,2.75
2023-05-18T11:00:07.849Z,2.30
2023-05-18T11:02:35.162Z,2.40
2023-05-18T11:05:05.777Z,2.78
2023-05-18T11:07:34.014Z,2.30
2023-05-18T11:10:08.658Z,2.47
2023-05-18T11:12:38.239Z,2.08
2023-05-18T11:15:05.954Z,2.85
2023-05-18T11:17:32.834Z,2.42
2023-05-18T11:20:09.051Z,3.13
2023-05-18T11:22:45.342Z,2.15
2023-05-18T11:25:24.086Z,1.83
2023-05-18T11:27:52.169Z,1.95
2023-05-18T11:30:34.025Z,2.47
2023-05-18T11:33:24.490Z,2.30
2023-05-18T11:36:09.436Z,2.17
2023-05-18T11:38:49.531Z,1.70
2023-05-18T11:41:29.262Z,2.15
2023-05-18T11:44:15.925Z,2.40
2023-05-18T11:46:56.350Z,2.70
2023-05-18T11:49:28.527Z,2.35
2023-05-18T11:52:06.129Z,1.92
2023-05-18T11:54:42.837Z,2.25
2023-05-18T11:57:11.250Z,2.25
2023-05-18T11:59:39.161Z,2.50
2023-05-18T12:02:06.378Z,2.40
2023-05-18T12:04:34.107Z,1.98
2023-05-18T12:07:05.699Z,2.08
2023-05-18T12:11:58.813Z,2.00
2023-05-18T12:14:26.636Z,2.08
2023-05-18T12:16:54.616Z,1.70
2023-05-18T12:19:23.476Z,2.40
2023-05-18T12:21:50.033Z,2.17
2023-05-18T12:24:16.923Z,1.80
2023-05-18T12:26:46.612Z,2.25
2023-05-18T12:29:20.052Z,2.35
2023-05-18T12:31:47.677Z,2.33
2023-05-18T12:34:14.900Z,2.10
2023-05-18T12:36:54.745Z,2.00
2023-05-18T12:39:21.763Z,1.92
2023-05-18T12:41:48.780Z,2.03
2023-05-18T12:44:15.475Z,2.00
2023-05-18T12:46:43.301Z,1.83
2023-05-18T12:49:10.839Z,2.33
2023-05-18T12:51:39.039Z,2.05
2023-05-18T12:54:06.961Z,2.30
2023-05-18T12:56:51.530Z,1.50
2023-05-18T12:59:21.042Z,2.30
2023-05-18T13:01:47.674Z,2.35
2023-05-18T13:04:14.291Z,1.98
2023-05-18T13:06:41.989Z,2.10
2023-05-18T13:09:17.688Z,2.40
2023-05-18T13:11:59.982Z,2.05
2023-05-18T13:14:38.121Z,1.60
2023-05-18T13:17:04.916Z,1.88
2023-05-18T13:19:35.731Z,2.22
2023-05-18T13:22:02.294Z,1.87
2023-05-18T13:24:28.993Z,2.10
2023-05-18T13:26:55.528Z,1.83
2023-05-18T13:29:22.060Z,1.77
2023-05-18T13:31:48.614Z,2.53
2023-05-18T13:34:15.131Z,2.05
2023-05-18T13:36:41.688Z,1.80
2023-05-18T13:39:08.359Z,1.77
2023-05-18T13:41:36.368Z,1.88
2023-05-18T13:44:03.441Z,1.90
2023-05-18T13:46:30.033Z,1.80
2023-05-18T13:48:56.544Z,1.67
2023-05-18T13:51:23.044Z,1.75
2023-05-18T13:53:49.603Z,2.22
2023-05-18T13:56:16.333Z,1.75
2023-05-18T13:58:43.654Z,1.90
2023-05-18T14:01:12.759Z,2.35
2023-05-18T14:03:40.607Z,1.80
2023-05-18T14:06:07.491Z,2.20
2023-05-18T14:08:34.224Z,1.75
2023-05-18T14:11:00.861Z,2.38
2023-05-18T14:13:27.399Z,1.98
2023-05-18T14:15:53.902Z,2.00
2023-05-18T14:18:20.364Z,1.88
2023-05-18T14:20:48.446Z,1.67
2023-05-18T14:23:15.025Z,2.33
2023-05-18T14:25:43.566Z,2.25
2023-05-18T14:28:10.426Z,1.73
2023-05-18T14:30:37.152Z,2.15
2023-05-18T14:33:04.084Z,2.38
2023-05-18T14:35:30.616Z,2.50
2023-05-18T14:37:57.070Z,2.03
2023-05-18T14:40:23.651Z,1.95
2023-05-18T14:42:52.253Z,2.15
2023-05-18T14:45:20.543Z,2.00
2023-05-18T14:47:47.183Z,2.20
2023-05-18T14:50:13.706Z,2.95
2023-05-18T14:52:40.278Z,1.77
2023-05-18T14:55:07.048Z,1.92
2023-05-18T14:57:33.641Z,2.30
2023-05-18T15:00:00.946Z,2.13
2023-05-18T15:02:27.822Z,1.70
2023-05-18T15:04:54.456Z,2.60
2023-05-18T15:07:21.015Z,2.63
2023-05-18T15:09:47.501Z,2.67
2023-05-18T15:12:13.987Z,2.28
2023-05-18T15:14:40.459Z,1.75
2023-05-18T15:17:08.474Z,2.40
2023-05-18T15:19:35.012Z,2.17
2023-05-18T15:22:01.660Z,2.00
2023-05-18T15:24:28.204Z,2.58
2023-05-18T15:26:54.770Z,2.30
2023-05-18T15:29:21.629Z,2.00
2023-05-18T15:31:50.891Z,1.88
2023-05-18T15:34:17.677Z,1.92
2023-05-18T15:36:44.149Z,1.60
2023-05-18T15:39:10.630Z,1.98
2023-05-18T15:41:37.211Z,2.17
2023-05-18T15:44:04.002Z,2.35
2023-05-18T15:46:33.107Z,2.22
2023-05-18T15:48:59.826Z,2.30
2023-05-18T15:51:26.357Z,1.75
2023-05-18T15:53:53.112Z,2.15
2023-05-18T15:56:19.795Z,1.70
2023-05-18T15:58:46.389Z,2.08
2023-05-18T16:01:12.915Z,2.03
2023-05-18T16:03:39.734Z,1.88
2023-05-18T16:06:06.557Z,2.03
2023-05-18T16:08:35.583Z,2.38
2023-05-18T16:11:02.364Z,2.28
2023-05-18T16:13:28.883Z,1.60
2023-05-18T16:15:55.455Z,1.67
2023-05-18T16:18:21.968Z,2.53
2023-05-18T16:20:48.714Z,1.55
2023-05-18T16:23:15.157Z,1.92
2023-05-18T16:25:42.175Z,2.33
2023-05-18T16:28:08.691Z,1.88
2023-05-18T16:30:35.162Z,1.48
2023-05-18T16:33:01.832Z,2.13
2023-05-18T16:35:30.932Z,1.77
2023-05-18T16:37:57.861Z,1.77
2023-05-18T16:40:24.370Z,1.83
2023-05-18T16:42:50.881Z,1.88
2023-05-18T16:45:17.395Z,2.30
2023-05-18T16:47:44.598Z,1.50
2023-05-18T16:50:11.306Z,1.83
2023-05-18T16:52:37.754Z,1.50
2023-05-18T16:55:04.515Z,2.10
2023-05-18T16:57:30.991Z,1.88
2023-05-18T16:59:57.470Z,2.10
2023-05-18T17:02:24.478Z,2.08
2023-05-18T17:04:51.101Z,1.65
2023-05-18T17:07:17.729Z,2.30
2023-05-18T17:09:44.629Z,2.17
2023-05-18T17:12:11.920Z,2.15
2023-05-18T17:14:38.521Z,1.75
2023-05-18T17:17:06.157Z,1.58
2023-05-18T17:19:34.769Z,2.42
2023-05-18T17:22:01.452Z,1.55
2023-05-18T17:24:28.071Z,1.88
2023-05-18T17:26:54.732Z,1.98
2023-05-18T17:29:22.074Z,2.28
2023-05-18T17:31:48.877Z,1.80
2023-05-18T17:34:15.576Z,1.83
2023-05-18T17:36:42.624Z,1.92
2023-05-18T17:39:09.474Z,2.30
2023-05-18T17:41:36.354Z,2.13
2023-05-18T17:44:03.122Z,1.70
2023-05-18T17:46:30.096Z,1.92
2023-05-18T17:48:56.856Z,2.13
2023-05-18T17:51:24.658Z,1.98
2023-05-18T17:53:51.598Z,1.85
2023-05-18T17:56:18.254Z,1.67
2023-05-18T17:58:44.766Z,1.65
2023-05-18T18:01:12.157Z,2.03
2023-05-18T18:03:39.034Z,1.98
2023-05-18T18:06:06.420Z,1.65
2023-05-18T18:08:33.320Z,2.00
2023-05-18T18:10:59.870Z,1.83
2023-05-18T18:13:26.650Z,2.08
2023-05-18T18:15:53.492Z,1.65
2023-05-18T18:18:23.356Z,1.88
2023-05-18T18:20:50.031Z,2.20
2023-05-18T18:23:16.512Z,1.92
2023-05-18T18:25:44.036Z,2.30
2023-05-18T18:28:14.937Z,2.00
2023-05-18T18:30:44.238Z,1.88
2023-05-18T18:33:11.663Z,2.00
2023-05-18T18:35:38.278Z,2.42
2023-05-18T18:38:04.937Z,2.30
2023-05-18T18:40:31.667Z,2.00
2023-05-18T18:42:58.406Z,2.20
2023-05-18T18:45:25.681Z,2.20
2023-05-18T18:47:52.404Z,1.77
2023-05-18T18:50:18.892Z,2.13
2023-05-18T18:52:45.612Z,1.70
2023-05-18T18:55:12.107Z,2.00
2023-05-18T18:57:38.773Z,1.85
2023-05-18T19:00:11.086Z,2.15
2023-05-18T19:02:38.405Z,2.10
2023-05-18T19:05:05.536Z,1.90
2023-05-18T19:07:33.097Z,2.35
2023-05-18T19:09:59.760Z,2.22
2023-05-18T19:12:26.251Z,2.25
2023-05-18T19:14:52.750Z,2.38
2023-05-18T19:17:19.395Z,2.35
2023-05-18T19:19:46.070Z,2.58
2023-05-18T19:22:12.562Z,2.15
2023-05-18T19:24:40.044Z,2.75
2023-05-18T19:27:06.606Z,2.45
2023-05-18T19:29:36.457Z,2.63
2023-05-18T19:32:04.741Z,2.45
2023-05-18T19:34:31.617Z,2.53
2023-05-18T19:36:58.221Z,3.00
2023-05-18T19:39:24.763Z,2.65
2023-05-18T19:41:51.369Z,2.58
2023-05-18T19:44:17.871Z,2.78
2023-05-18T19:46:44.358Z,2.70
2023-05-18T19:49:11.138Z,2.80
2023-05-18T19:51:38.124Z,2.78
2023-05-18T19:54:04.724Z,2.70
2023-05-18T19:56:31.280Z,2.70
2023-05-18T19:58:57.873Z,2.80
2023-05-18T20:01:27.199Z,2.72
2023-05-18T20:03:53.820Z,3.40
2023-05-18T20:06:20.471Z,2.50
2023-05-18T20:08:47.934Z,2.45
2023-05-18T20:11:14.983Z,3.78
2023-05-18T20:13:43.776Z,3.58
2023-05-18T20:16:10.340Z,3.78
2023-05-18T20:18:37.553Z,3.40
2023-05-18T20:21:04.322Z,3.47
2023-05-18T20:23:30.871Z,3.17
2023-05-18T20:25:57.492Z,3.33
2023-05-18T20:28:26.152Z,3.30
2023-05-18T20:30:52.606Z,3.30
2023-05-18T20:33:19.341Z,3.72
2023-05-18T20:35:45.978Z,3.25
2023-05-18T20:38:12.641Z,3.50
2023-05-18T20:40:39.269Z,3.28
2023-05-18T20:43:09.949Z,3.33
2023-05-18T20:45:36.733Z,3.10
2023-05-18T20:48:06.468Z,3.42
2023-05-18T20:50:33.810Z,3.00
2023-05-18T20:53:00.617Z,3.30
2023-05-18T20:55:27.478Z,2.90
2023-05-18T20:57:53.958Z,2.60
2023-05-18T21:00:21.644Z,2.88
2023-05-18T21:02:48.788Z,2.78
2023-05-18T21:05:16.286Z,2.08
2023-05-18T21:07:43.722Z,2.47
2023-05-18T21:10:11.283Z,2.50
2023-05-18T21:12:38.240Z,2.70
2023-05-18T21:15:05.180Z,3.53
2023-05-18T21:17:31.922Z,2.75
2023-05-18T21:19:58.580Z,3.17
2023-05-18T21:22:25.184Z,2.83
2023-05-18T21:24:51.644Z,2.88
2023-05-18T21:27:18.119Z,3.10
2023-05-18T21:29:44.635Z,2.35
2023-05-18T21:32:11.402Z,3.08
2023-05-18T21:34:37.983Z,2.63
2023-05-18T21:37:04.888Z,2.67
2023-05-18T21:39:31.371Z,2.83
2023-05-18T21:41:57.908Z,2.80
2023-05-18T21:44:24.400Z,3.63
2023-05-18T21:46:57.834Z,2.85
2023-05-18T21:49:24.513Z,2.53
2023-05-18T21:51:51.361Z,2.67
2023-05-18T21:54:17.872Z,2.15
2023-05-18T21:56:44.510Z,2.63
2023-05-18T21:59:10.999Z,2.53
2023-05-18T22:01:37.577Z,2.90
2023-05-18T22:04:04.310Z,2.35
2023-05-18T22:06:31.150Z,2.72
2023-05-18T22:08:57.754Z,3.25
2023-05-18T22:11:24.609Z,2.60
2023-05-18T22:13:51.442Z,2.47
2023-05-18T22:16:18.021Z,2.97
2023-05-18T22:18:44.708Z,3.08
2023-05-18T22:21:11.327Z,3.20
2023-05-18T22:23:39.162Z,2.63
2023-05-18T22:26:05.791Z,2.45
2023-05-18T22:28:32.282Z,2.40
2023-05-18T22:30:58.751Z,2.78
2023-05-18T22:33:25.573Z,2.97
2023-05-18T22:35:52.080Z,3.03
2023-05-18T22:38:18.717Z,2.90
2023-05-18T22:40:45.623Z,2.60
2023-05-18T22:43:12.289Z,1.90
2023-05-18T22:45:38.955Z,2.63
2023-05-18T22:48:05.665Z,2.55
2023-05-18T22:50:32.416Z,2.83
2023-05-18T22:52:59.055Z,2.20
2023-05-18T22:55:25.600Z,2.70
2023-05-18T22:57:52.075Z,2.10
2023-05-18T23:00:19.149Z,2.35
2023-05-18T23:02:45.916Z,1.92
2023-05-18T23:05:13.481Z,2.58
2023-05-18T23:07:41.861Z,1.83
2023-05-18T23:10:11.272Z,2.50
2023-05-18T23:12:38.473Z,2.63
2023-05-18T23:15:06.156Z,2.80
2023-05-18T23:17:33.808Z,2.78
2023-05-18T23:20:09.959Z,2.00
2023-05-18T23:22:36.507Z,2.17
2023-05-18T23:25:04.694Z,2.83
2023-05-18T23:27:31.359Z,2.53
2023-05-18T23:29:57.935Z,2.78
2023-05-18T23:32:24.913Z,2.33
2023-05-18T23:34:52.975Z,2.30
2023-05-18T23:37:23.058Z,2.08
2023-05-18T23:39:51.851Z,2.75
2023-05-18T23:42:22.919Z,2.38
2023-05-18T23:44:49.714Z,2.97
2023-05-18T23:47:16.716Z,2.42
2023-05-18T23:49:44.326Z,2.05
2023-05-18T23:52:11.727Z,3.03
2023-05-18T23:54:38.698Z,2.40
2023-05-18T23:57:05.733Z,2.30
2023-05-18T23:59:32.522Z,2.58
